sensor_id;sensor_type;location;lat;lon;timestamp;temperature;humidity
39503;DHT22;26970;49.900;10.774;2023-04-24T00:01:28;10.30;99.90
39503;DHT22;26970;49.900;10.774;2023-04-24T00:03:55;10.30;99.90
39503;DHT22;26970;49.900;10.774;2023-04-24T00:06:27;10.30;99.90
39503;DHT22;26970;49.900;10.774;2023-04-24T00:09:01;10.30;99.90
39503;DHT22;26970;49.900;10.774;2023-04-24T00:11:28;10.40;99.90
39503;DHT22;26970;49.900;10.774;2023-04-24T00:13:54;10.30;99.90
39503;DHT22;26970;49.900;10.774;2023-04-24T00:16:20;10.30;99.90
39503;DHT22;26970;49.900;10.774;2023-04-24T00:18:46;10.30;99.90
39503;DHT22;26970;49.900;10.774;2023-04-24T00:21:13;10.30;99.90
39503;DHT22;26970;49.900;10.774;2023-04-24T00:23:39;10.30;99.90
39503;DHT22;26970;49.900;10.774;2023-04-24T00:26:04;10.30;99.90
39503;DHT22;26970;49.900;10.774;2023-04-24T00:28:30;10.30;99.90
39503;DHT22;26970;49.900;10.774;2023-04-24T00:30:56;10.30;99.90
39503;DHT22;26970;49.900;10.774;2023-04-24T00:33:21;10.20;99.90
39503;DHT22;26970;49.900;10.774;2023-04-24T00:35:47;10.20;99.90
39503;DHT22;26970;49.900;10.774;2023-04-24T00:38:12;10.10;99.90
39503;DHT22;26970;49.900;10.774;2023-04-24T00:40:38;10.10;99.90
39503;DHT22;26970;49.900;10.774;2023-04-24T00:43:03;10.10;99.90
39503;DHT22;26970;49.900;10.774;2023-04-24T00:45:29;10.00;99.90
39503;DHT22;26970;49.900;10.774;2023-04-24T00:47:57;10.00;99.90
39503;DHT22;26970;49.900;10.774;2023-04-24T00:50:23;9.90;99.90
39503;DHT22;26970;49.900;10.774;2023-04-24T00:52:49;9.90;99.90
39503;DHT22;26970;49.900;10.774;2023-04-24T00:55:16;9.90;99.90
39503;DHT22;26970;49.900;10.774;2023-04-24T00:57:42;9.90;99.90
39503;DHT22;26970;49.900;10.774;2023-04-24T01:00:08;9.90;99.90
39503;DHT22;26970;49.900;10.774;2023-04-24T01:02:41;9.90;99.90
39503;DHT22;26970;49.900;10.774;2023-04-24T01:05:14;9.90;99.90
39503;DHT22;26970;49.900;10.774;2023-04-24T01:07:41;9.90;99.90
39503;DHT22;26970;49.900;10.774;2023-04-24T01:10:09;9.90;99.90
39503;DHT22;26970;49.900;10.774;2023-04-24T01:12:35;10.00;99.90
39503;DHT22;26970;49.900;10.774;2023-04-24T01:15:00;10.00;99.90
39503;DHT22;26970;49.900;10.774;2023-04-24T01:17:26;10.00;99.90
39503;DHT22;26970;49.900;10.774;2023-04-24T01:19:52;10.00;99.90
39503;DHT22;26970;49.900;10.774;2023-04-24T01:22:22;10.10;99.90
39503;DHT22;26970;49.900;10.774;2023-04-24T01:24:48;10.10;99.90
39503;DHT22;26970;49.900;10.774;2023-04-24T01:27:14;10.10;99.90
39503;DHT22;26970;49.900;10.774;2023-04-24T01:29:40;10.10;99.90
39503;DHT22;26970;49.900;10.774;2023-04-24T01:32:06;10.20;99.90
39503;DHT22;26970;49.900;10.774;2023-04-24T01:34:32;10.20;99.90
39503;DHT22;26970;49.900;10.774;2023-04-24T01:36:58;10.20;99.90
39503;DHT22;26970;49.900;10.774;2023-04-24T01:39:24;10.10;99.90
39503;DHT22;26970;49.900;10.774;2023-04-24T01:41:51;10.10;99.90
39503;DHT22;26970;49.900;10.774;2023-04-24T01:44:18;10.20;99.90
39503;DHT22;26970;49.900;10.774;2023-04-24T01:46:44;10.20;99.90
39503;DHT22;26970;49.900;10.774;2023-04-24T01:49:10;10.20;99.90
39503;DHT22;26970;49.900;10.774;2023-04-24T01:51:36;10.20;99.90
39503;DHT22;26970;49.900;10.774;2023-04-24T01:54:01;10.30;99.90
39503;DHT22;26970;49.900;10.774;2023-04-24T01:56:29;10.30;99.90
39503;DHT22;26970;49.900;10.774;2023-04-24T01:58:56;10.30;99.90
39503;DHT22;26970;49.900;10.774;2023-04-24T02:01:23;10.30;99.90
39503;DHT22;26970;49.900;10.774;2023-04-24T02:03:49;10.30;99.90
39503;DHT22;26970;49.900;10.774;2023-04-24T02:06:15;10.30;99.90
39503;DHT22;26970;49.900;10.774;2023-04-24T02:08:41;10.30;99.90
39503;DHT22;26970;49.900;10.774;2023-04-24T02:11:09;10.30;99.90
39503;DHT22;26970;49.900;10.774;2023-04-24T02:13:34;10.30;99.90
39503;DHT22;26970;49.900;10.774;2023-04-24T02:16:00;10.20;99.90
39503;DHT22;26970;49.900;10.774;2023-04-24T02:18:26;10.20;99.90
39503;DHT22;26970;49.900;10.774;2023-04-24T02:20:51;10.20;99.90
39503;DHT22;26970;49.900;10.774;2023-04-24T02:23:17;10.20;99.90
39503;DHT22;26970;49.900;10.774;2023-04-24T02:25:43;10.20;99.90
39503;DHT22;26970;49.900;10.774;2023-04-24T02:28:08;10.20;99.90
39503;DHT22;26970;49.900;10.774;2023-04-24T02:30:34;10.20;99.90
39503;DHT22;26970;49.900;10.774;2023-04-24T02:32:59;10.20;99.90
39503;DHT22;26970;49.900;10.774;2023-04-24T02:35:25;10.20;99.90
39503;DHT22;26970;49.900;10.774;2023-04-24T02:37:51;10.10;99.90
39503;DHT22;26970;49.900;10.774;2023-04-24T02:40:16;10.00;99.90
39503;DHT22;26970;49.900;10.774;2023-04-24T02:42:42;10.00;99.90
39503;DHT22;26970;49.900;10.774;2023-04-24T02:45:08;9.90;99.90
39503;DHT22;26970;49.900;10.774;2023-04-24T02:47:33;9.90;99.90
39503;DHT22;26970;49.900;10.774;2023-04-24T02:49:59;9.90;99.90
39503;DHT22;26970;49.900;10.774;2023-04-24T02:52:24;9.90;99.90
39503;DHT22;26970;49.900;10.774;2023-04-24T02:54:50;9.80;99.90
39503;DHT22;26970;49.900;10.774;2023-04-24T02:57:15;9.80;99.90
39503;DHT22;26970;49.900;10.774;2023-04-24T02:59:41;9.80;99.90
39503;DHT22;26970;49.900;10.774;2023-04-24T03:02:07;9.80;99.90
39503;DHT22;26970;49.900;10.774;2023-04-24T03:04:32;9.80;99.90
39503;DHT22;26970;49.900;10.774;2023-04-24T03:06:58;9.80;99.90
39503;DHT22;26970;49.900;10.774;2023-04-24T03:09:24;9.70;99.90
39503;DHT22;26970;49.900;10.774;2023-04-24T03:11:50;9.80;99.90
39503;DHT22;26970;49.900;10.774;2023-04-24T03:14:16;9.80;99.90
39503;DHT22;26970;49.900;10.774;2023-04-24T03:16:41;9.80;99.90
39503;DHT22;26970;49.900;10.774;2023-04-24T03:19:07;9.80;99.90
39503;DHT22;26970;49.900;10.774;2023-04-24T03:21:33;9.80;99.90
39503;DHT22;26970;49.900;10.774;2023-04-24T03:23:58;9.80;99.90
39503;DHT22;26970;49.900;10.774;2023-04-24T03:26:24;9.80;99.90
39503;DHT22;26970;49.900;10.774;2023-04-24T03:28:50;9.80;99.90
39503;DHT22;26970;49.900;10.774;2023-04-24T03:31:15;9.70;99.90
39503;DHT22;26970;49.900;10.774;2023-04-24T03:33:42;9.70;99.90
39503;DHT22;26970;49.900;10.774;2023-04-24T03:36:07;9.70;99.90
39503;DHT22;26970;49.900;10.774;2023-04-24T03:38:33;9.60;99.90
39503;DHT22;26970;49.900;10.774;2023-04-24T03:40:58;9.60;99.90
39503;DHT22;26970;49.900;10.774;2023-04-24T03:43:24;9.50;99.90
39503;DHT22;26970;49.900;10.774;2023-04-24T03:45:50;9.40;99.90
39503;DHT22;26970;49.900;10.774;2023-04-24T03:48:16;9.40;99.90
39503;DHT22;26970;49.900;10.774;2023-04-24T03:50:41;9.30;99.90
39503;DHT22;26970;49.900;10.774;2023-04-24T03:53:07;9.40;99.90
39503;DHT22;26970;49.900;10.774;2023-04-24T03:55:33;9.40;99.90
39503;DHT22;26970;49.900;10.774;2023-04-24T03:57:58;9.30;99.90
39503;DHT22;26970;49.900;10.774;2023-04-24T04:00:24;9.30;99.90
39503;DHT22;26970;49.900;10.774;2023-04-24T04:02:51;9.40;99.90
39503;DHT22;26970;49.900;10.774;2023-04-24T04:05:16;9.40;99.90
39503;DHT22;26970;49.900;10.774;2023-04-24T04:07:42;9.50;99.90
39503;DHT22;26970;49.900;10.774;2023-04-24T04:10:08;9.40;99.90
39503;DHT22;26970;49.900;10.774;2023-04-24T04:12:33;9.50;99.90
39503;DHT22;26970;49.900;10.774;2023-04-24T04:14:59;9.40;99.90
39503;DHT22;26970;49.900;10.774;2023-04-24T04:17:24;9.40;99.90
39503;DHT22;26970;49.900;10.774;2023-04-24T04:19:50;9.40;99.90
39503;DHT22;26970;49.900;10.774;2023-04-24T04:22:16;9.30;99.90
39503;DHT22;26970;49.900;10.774;2023-04-24T04:24:41;9.40;99.90
39503;DHT22;26970;49.900;10.774;2023-04-24T04:27:07;9.40;99.90
39503;DHT22;26970;49.900;10.774;2023-04-24T04:29:33;9.40;99.90
39503;DHT22;26970;49.900;10.774;2023-04-24T04:32:00;9.50;99.90
39503;DHT22;26970;49.900;10.774;2023-04-24T04:34:26;9.50;99.90
39503;DHT22;26970;49.900;10.774;2023-04-24T04:36:52;9.50;99.90
39503;DHT22;26970;49.900;10.774;2023-04-24T04:39:18;9.50;99.90
39503;DHT22;26970;49.900;10.774;2023-04-24T04:41:44;9.50;99.90
39503;DHT22;26970;49.900;10.774;2023-04-24T04:44:11;9.40;99.90
39503;DHT22;26970;49.900;10.774;2023-04-24T04:46:38;9.40;99.90
39503;DHT22;26970;49.900;10.774;2023-04-24T04:49:03;9.40;99.90
39503;DHT22;26970;49.900;10.774;2023-04-24T04:51:30;9.50;99.90
39503;DHT22;26970;49.900;10.774;2023-04-24T04:53:56;9.50;99.90
39503;DHT22;26970;49.900;10.774;2023-04-24T04:56:22;9.50;99.90
39503;DHT22;26970;49.900;10.774;2023-04-24T04:58:47;9.50;99.90
39503;DHT22;26970;49.900;10.774;2023-04-24T05:01:13;9.60;99.90
39503;DHT22;26970;49.900;10.774;2023-04-24T05:03:39;9.70;99.90
39503;DHT22;26970;49.900;10.774;2023-04-24T05:06:05;9.70;99.90
39503;DHT22;26970;49.900;10.774;2023-04-24T05:08:31;9.80;99.90
39503;DHT22;26970;49.900;10.774;2023-04-24T05:10:56;9.80;99.90
39503;DHT22;26970;49.900;10.774;2023-04-24T05:13:22;9.90;99.90
39503;DHT22;26970;49.900;10.774;2023-04-24T05:15:47;9.90;99.90
39503;DHT22;26970;49.900;10.774;2023-04-24T05:18:13;10.00;99.90
39503;DHT22;26970;49.900;10.774;2023-04-24T05:20:39;10.00;99.90
39503;DHT22;26970;49.900;10.774;2023-04-24T05:23:04;9.90;99.90
39503;DHT22;26970;49.900;10.774;2023-04-24T05:25:30;10.00;99.90
39503;DHT22;26970;49.900;10.774;2023-04-24T05:28:00;9.90;99.90
39503;DHT22;26970;49.900;10.774;2023-04-24T05:30:26;10.00;99.90
39503;DHT22;26970;49.900;10.774;2023-04-24T05:32:51;10.00;99.90
39503;DHT22;26970;49.900;10.774;2023-04-24T05:35:17;10.00;99.90
39503;DHT22;26970;49.900;10.774;2023-04-24T05:37:44;10.00;99.90
39503;DHT22;26970;49.900;10.774;2023-04-24T05:40:10;10.00;99.90
39503;DHT22;26970;49.900;10.774;2023-04-24T05:42:35;10.10;99.90
39503;DHT22;26970;49.900;10.774;2023-04-24T05:45:01;10.10;99.90
39503;DHT22;26970;49.900;10.774;2023-04-24T05:47:26;10.10;99.90
39503;DHT22;26970;49.900;10.774;2023-04-24T05:49:52;10.10;99.90
39503;DHT22;26970;49.900;10.774;2023-04-24T05:52:18;10.20;99.90
39503;DHT22;26970;49.900;10.774;2023-04-24T05:54:44;10.20;99.90
39503;DHT22;26970;49.900;10.774;2023-04-24T05:57:09;10.20;99.90
39503;DHT22;26970;49.900;10.774;2023-04-24T05:59:37;10.20;99.90
39503;DHT22;26970;49.900;10.774;2023-04-24T06:02:04;10.20;99.90
39503;DHT22;26970;49.900;10.774;2023-04-24T06:04:29;10.10;99.90
39503;DHT22;26970;49.900;10.774;2023-04-24T06:06:55;10.10;99.90
39503;DHT22;26970;49.900;10.774;2023-04-24T06:09:25;10.10;99.90
39503;DHT22;26970;49.900;10.774;2023-04-24T06:11:51;10.10;99.90
39503;DHT22;26970;49.900;10.774;2023-04-24T06:14:18;10.10;99.90
39503;DHT22;26970;49.900;10.774;2023-04-24T06:16:44;10.10;99.90
39503;DHT22;26970;49.900;10.774;2023-04-24T06:19:09;10.10;99.90
39503;DHT22;26970;49.900;10.774;2023-04-24T06:21:35;10.20;99.90
39503;DHT22;26970;49.900;10.774;2023-04-24T06:24:01;10.20;99.90
39503;DHT22;26970;49.900;10.774;2023-04-24T06:26:27;10.20;99.90
39503;DHT22;26970;49.900;10.774;2023-04-24T06:28:53;10.30;99.90
39503;DHT22;26970;49.900;10.774;2023-04-24T06:31:23;10.30;99.90
39503;DHT22;26970;49.900;10.774;2023-04-24T06:33:49;10.30;99.90
39503;DHT22;26970;49.900;10.774;2023-04-24T06:36:15;10.30;99.90
39503;DHT22;26970;49.900;10.774;2023-04-24T06:38:41;10.30;99.90
39503;DHT22;26970;49.900;10.774;2023-04-24T06:41:07;10.30;99.90
39503;DHT22;26970;49.900;10.774;2023-04-24T06:43:33;10.30;99.90
39503;DHT22;26970;49.900;10.774;2023-04-24T06:45:59;10.40;99.90
39503;DHT22;26970;49.900;10.774;2023-04-24T06:48:25;10.50;99.90
39503;DHT22;26970;49.900;10.774;2023-04-24T06:50:51;10.50;99.90
39503;DHT22;26970;49.900;10.774;2023-04-24T06:53:17;10.60;99.90
39503;DHT22;26970;49.900;10.774;2023-04-24T06:55:43;10.60;99.90
39503;DHT22;26970;49.900;10.774;2023-04-24T06:58:10;10.60;99.90
39503;DHT22;26970;49.900;10.774;2023-04-24T07:00:36;10.60;99.90
39503;DHT22;26970;49.900;10.774;2023-04-24T07:03:02;10.70;99.90
39503;DHT22;26970;49.900;10.774;2023-04-24T07:05:28;10.70;99.90
39503;DHT22;26970;49.900;10.774;2023-04-24T07:07:54;10.70;99.90
39503;DHT22;26970;49.900;10.774;2023-04-24T07:10:20;10.80;99.90
39503;DHT22;26970;49.900;10.774;2023-04-24T07:12:46;10.70;99.90
39503;DHT22;26970;49.900;10.774;2023-04-24T07:15:12;10.70;99.90
39503;DHT22;26970;49.900;10.774;2023-04-24T07:17:38;10.70;99.90
39503;DHT22;26970;49.900;10.774;2023-04-24T07:20:04;10.90;99.90
39503;DHT22;26970;49.900;10.774;2023-04-24T07:22:30;11.40;99.90
39503;DHT22;26970;49.900;10.774;2023-04-24T07:24:56;11.80;99.90
39503;DHT22;26970;49.900;10.774;2023-04-24T07:27:22;12.10;99.90
39503;DHT22;26970;49.900;10.774;2023-04-24T07:29:47;12.10;99.90
39503;DHT22;26970;49.900;10.774;2023-04-24T07:32:13;11.90;99.90
39503;DHT22;26970;49.900;10.774;2023-04-24T07:34:39;11.80;99.90
39503;DHT22;26970;49.900;10.774;2023-04-24T07:37:04;11.90;99.90
39503;DHT22;26970;49.900;10.774;2023-04-24T07:39:30;11.90;99.90
39503;DHT22;26970;49.900;10.774;2023-04-24T07:41:56;11.90;99.90
39503;DHT22;26970;49.900;10.774;2023-04-24T07:44:22;11.80;99.90
39503;DHT22;26970;49.900;10.774;2023-04-24T07:46:47;11.90;99.90
39503;DHT22;26970;49.900;10.774;2023-04-24T07:49:13;12.10;99.90
39503;DHT22;26970;49.900;10.774;2023-04-24T07:51:39;12.40;99.90
39503;DHT22;26970;49.900;10.774;2023-04-24T07:54:05;12.70;99.90
39503;DHT22;26970;49.900;10.774;2023-04-24T07:56:34;12.90;99.90
39503;DHT22;26970;49.900;10.774;2023-04-24T07:59:00;13.00;99.90
39503;DHT22;26970;49.900;10.774;2023-04-24T08:01:26;12.70;99.90
39503;DHT22;26970;49.900;10.774;2023-04-24T08:03:52;12.50;99.90
39503;DHT22;26970;49.900;10.774;2023-04-24T08:06:18;12.50;99.90
39503;DHT22;26970;49.900;10.774;2023-04-24T08:08:43;12.50;99.90
39503;DHT22;26970;49.900;10.774;2023-04-24T08:11:09;12.70;99.90
39503;DHT22;26970;49.900;10.774;2023-04-24T08:13:35;12.70;99.90
39503;DHT22;26970;49.900;10.774;2023-04-24T08:16:01;12.50;99.90
39503;DHT22;26970;49.900;10.774;2023-04-24T08:18:27;12.30;99.90
39503;DHT22;26970;49.900;10.774;2023-04-24T08:20:53;12.30;99.90
39503;DHT22;26970;49.900;10.774;2023-04-24T08:23:18;12.30;99.90
39503;DHT22;26970;49.900;10.774;2023-04-24T08:25:44;12.20;99.90
39503;DHT22;26970;49.900;10.774;2023-04-24T08:28:09;12.40;99.90
39503;DHT22;26970;49.900;10.774;2023-04-24T08:30:36;12.20;99.90
39503;DHT22;26970;49.900;10.774;2023-04-24T08:33:02;12.00;99.90
39503;DHT22;26970;49.900;10.774;2023-04-24T08:35:28;11.80;99.90
39503;DHT22;26970;49.900;10.774;2023-04-24T08:37:53;11.80;99.90
39503;DHT22;26970;49.900;10.774;2023-04-24T08:40:23;11.80;99.90
39503;DHT22;26970;49.900;10.774;2023-04-24T08:42:54;12.00;99.90
39503;DHT22;26970;49.900;10.774;2023-04-24T08:45:21;12.00;99.90
39503;DHT22;26970;49.900;10.774;2023-04-24T08:47:47;11.70;99.90
39503;DHT22;26970;49.900;10.774;2023-04-24T08:50:14;11.60;99.90
39503;DHT22;26970;49.900;10.774;2023-04-24T08:52:42;11.60;99.90
39503;DHT22;26970;49.900;10.774;2023-04-24T08:55:08;11.80;99.90
39503;DHT22;26970;49.900;10.774;2023-04-24T08:57:35;11.90;99.90
39503;DHT22;26970;49.900;10.774;2023-04-24T09:00:01;12.20;99.90
39503;DHT22;26970;49.900;10.774;2023-04-24T09:02:27;12.10;99.90
39503;DHT22;26970;49.900;10.774;2023-04-24T09:04:55;11.90;99.90
39503;DHT22;26970;49.900;10.774;2023-04-24T09:07:24;11.80;99.90
39503;DHT22;26970;49.900;10.774;2023-04-24T09:09:51;11.90;99.90
39503;DHT22;26970;49.900;10.774;2023-04-24T09:12:17;12.10;99.90
39503;DHT22;26970;49.900;10.774;2023-04-24T09:14:43;12.10;99.90
39503;DHT22;26970;49.900;10.774;2023-04-24T09:17:11;12.00;99.90
39503;DHT22;26970;49.900;10.774;2023-04-24T09:19:36;12.10;99.90
39503;DHT22;26970;49.900;10.774;2023-04-24T09:22:06;12.20;99.90
39503;DHT22;26970;49.900;10.774;2023-04-24T09:24:33;12.20;99.90
39503;DHT22;26970;49.900;10.774;2023-04-24T09:26:59;12.00;99.90
39503;DHT22;26970;49.900;10.774;2023-04-24T09:29:27;12.00;99.90
39503;DHT22;26970;49.900;10.774;2023-04-24T09:31:53;11.90;99.90
39503;DHT22;26970;49.900;10.774;2023-04-24T09:34:26;11.90;99.90
39503;DHT22;26970;49.900;10.774;2023-04-24T09:36:52;11.90;99.90
39503;DHT22;26970;49.900;10.774;2023-04-24T09:39:18;11.90;99.90
39503;DHT22;26970;49.900;10.774;2023-04-24T09:44:20;11.80;99.90
39503;DHT22;26970;49.900;10.774;2023-04-24T09:46:53;11.90;99.90
39503;DHT22;26970;49.900;10.774;2023-04-24T09:49:27;12.30;99.90
39503;DHT22;26970;49.900;10.774;2023-04-24T09:52:10;12.70;99.90
39503;DHT22;26970;49.900;10.774;2023-04-24T09:54:36;12.90;99.90
39503;DHT22;26970;49.900;10.774;2023-04-24T09:57:03;12.90;99.90
39503;DHT22;26970;49.900;10.774;2023-04-24T09:59:29;13.00;99.90
39503;DHT22;26970;49.900;10.774;2023-04-24T10:01:55;12.90;99.90
39503;DHT22;26970;49.900;10.774;2023-04-24T10:04:23;12.80;99.90
39503;DHT22;26970;49.900;10.774;2023-04-24T10:06:50;12.50;99.90
39503;DHT22;26970;49.900;10.774;2023-04-24T10:09:20;12.10;99.90
39503;DHT22;26970;49.900;10.774;2023-04-24T10:11:48;11.70;99.90
39503;DHT22;26970;49.900;10.774;2023-04-24T10:14:16;11.50;99.90
39503;DHT22;26970;49.900;10.774;2023-04-24T10:16:42;11.40;99.90
39503;DHT22;26970;49.900;10.774;2023-04-24T10:19:10;11.40;99.90
39503;DHT22;26970;49.900;10.774;2023-04-24T10:21:37;11.50;99.90
39503;DHT22;26970;49.900;10.774;2023-04-24T10:24:11;11.80;99.90
39503;DHT22;26970;49.900;10.774;2023-04-24T10:26:38;12.10;99.90
39503;DHT22;26970;49.900;10.774;2023-04-24T10:29:06;12.70;99.90
39503;DHT22;26970;49.900;10.774;2023-04-24T10:31:36;12.90;99.90
39503;DHT22;26970;49.900;10.774;2023-04-24T10:34:03;12.90;99.90
39503;DHT22;26970;49.900;10.774;2023-04-24T10:36:30;13.00;99.90
39503;DHT22;26970;49.900;10.774;2023-04-24T10:38:59;13.00;99.90
39503;DHT22;26970;49.900;10.774;2023-04-24T10:41:26;12.90;99.90
39503;DHT22;26970;49.900;10.774;2023-04-24T10:44:08;13.00;99.90
39503;DHT22;26970;49.900;10.774;2023-04-24T10:46:35;13.20;99.90
39503;DHT22;26970;49.900;10.774;2023-04-24T10:49:04;13.50;99.90
39503;DHT22;26970;49.900;10.774;2023-04-24T10:54:36;13.50;99.90
39503;DHT22;26970;49.900;10.774;2023-04-24T10:59:49;13.70;99.90
39503;DHT22;26970;49.900;10.774;2023-04-24T11:02:16;13.20;99.90
39503;DHT22;26970;49.900;10.774;2023-04-24T11:04:42;12.90;99.90
39503;DHT22;26970;49.900;10.774;2023-04-24T11:07:09;12.80;99.90
39503;DHT22;26970;49.900;10.774;2023-04-24T11:09:36;12.70;99.90
39503;DHT22;26970;49.900;10.774;2023-04-24T11:12:09;12.50;99.90
39503;DHT22;26970;49.900;10.774;2023-04-24T11:17:36;12.90;99.90
39503;DHT22;26970;49.900;10.774;2023-04-24T11:20:11;12.80;99.90
39503;DHT22;26970;49.900;10.774;2023-04-24T11:22:38;12.60;99.90
39503;DHT22;26970;49.900;10.774;2023-04-24T11:25:06;12.40;99.90
39503;DHT22;26970;49.900;10.774;2023-04-24T11:27:41;12.40;99.90
39503;DHT22;26970;49.900;10.774;2023-04-24T11:30:08;12.50;99.90
39503;DHT22;26970;49.900;10.774;2023-04-24T11:32:35;12.60;99.90
39503;DHT22;26970;49.900;10.774;2023-04-24T11:35:22;12.90;99.90
39503;DHT22;26970;49.900;10.774;2023-04-24T11:37:54;13.10;99.90
39503;DHT22;26970;49.900;10.774;2023-04-24T11:40:21;13.20;99.90
39503;DHT22;26970;49.900;10.774;2023-04-24T11:42:51;13.20;99.90
39503;DHT22;26970;49.900;10.774;2023-04-24T11:45:18;13.20;99.90
39503;DHT22;26970;49.900;10.774;2023-04-24T11:47:45;13.20;99.90
39503;DHT22;26970;49.900;10.774;2023-04-24T11:50:12;13.10;99.90
39503;DHT22;26970;49.900;10.774;2023-04-24T11:52:40;12.80;99.90
39503;DHT22;26970;49.900;10.774;2023-04-24T11:55:24;12.50;99.90
39503;DHT22;26970;49.900;10.774;2023-04-24T11:57:56;12.20;99.90
39503;DHT22;26970;49.900;10.774;2023-04-24T12:00:24;12.00;99.90
39503;DHT22;26970;49.900;10.774;2023-04-24T12:02:50;11.80;99.90
39503;DHT22;26970;49.900;10.774;2023-04-24T12:05:26;11.70;99.90
39503;DHT22;26970;49.900;10.774;2023-04-24T12:07:53;11.60;99.90
39503;DHT22;26970;49.900;10.774;2023-04-24T12:10:26;11.80;99.90
39503;DHT22;26970;49.900;10.774;2023-04-24T12:12:53;12.10;99.90
39503;DHT22;26970;49.900;10.774;2023-04-24T12:15:22;12.70;99.90
39503;DHT22;26970;49.900;10.774;2023-04-24T12:17:51;13.20;99.90
39503;DHT22;26970;49.900;10.774;2023-04-24T12:20:16;13.40;99.90
39503;DHT22;26970;49.900;10.774;2023-04-24T12:22:46;13.50;99.90
39503;DHT22;26970;49.900;10.774;2023-04-24T12:25:13;13.20;99.90
39503;DHT22;26970;49.900;10.774;2023-04-24T12:27:39;13.10;99.90
39503;DHT22;26970;49.900;10.774;2023-04-24T12:30:14;13.30;99.90
39503;DHT22;26970;49.900;10.774;2023-04-24T12:32:47;13.20;99.90
39503;DHT22;26970;49.900;10.774;2023-04-24T12:35:24;13.10;99.90
39503;DHT22;26970;49.900;10.774;2023-04-24T12:37:50;13.00;99.90
39503;DHT22;26970;49.900;10.774;2023-04-24T12:40:17;12.80;99.90
39503;DHT22;26970;49.900;10.774;2023-04-24T12:42:45;12.60;99.90
39503;DHT22;26970;49.900;10.774;2023-04-24T12:45:11;12.30;99.90
39503;DHT22;26970;49.900;10.774;2023-04-24T12:47:40;12.20;99.90
39503;DHT22;26970;49.900;10.774;2023-04-24T12:50:11;12.00;99.90
39503;DHT22;26970;49.900;10.774;2023-04-24T12:52:37;12.20;99.90
39503;DHT22;26970;49.900;10.774;2023-04-24T12:55:05;12.40;99.90
39503;DHT22;26970;49.900;10.774;2023-04-24T12:57:33;12.60;99.90
39503;DHT22;26970;49.900;10.774;2023-04-24T13:00:00;12.70;99.90
39503;DHT22;26970;49.900;10.774;2023-04-24T13:02:28;12.80;99.90
39503;DHT22;26970;49.900;10.774;2023-04-24T13:04:54;12.80;99.90
39503;DHT22;26970;49.900;10.774;2023-04-24T13:07:20;12.70;99.90
39503;DHT22;26970;49.900;10.774;2023-04-24T13:09:48;12.60;99.90
39503;DHT22;26970;49.900;10.774;2023-04-24T13:12:14;12.40;99.90
39503;DHT22;26970;49.900;10.774;2023-04-24T13:14:40;12.40;99.90
39503;DHT22;26970;49.900;10.774;2023-04-24T13:17:06;12.50;99.90
39503;DHT22;26970;49.900;10.774;2023-04-24T13:19:40;12.60;99.90
39503;DHT22;26970;49.900;10.774;2023-04-24T13:22:06;12.90;99.90
39503;DHT22;26970;49.900;10.774;2023-04-24T13:24:32;13.10;99.90
39503;DHT22;26970;49.900;10.774;2023-04-24T13:26:59;13.30;99.90
39503;DHT22;26970;49.900;10.774;2023-04-24T13:29:25;13.30;99.90
39503;DHT22;26970;49.900;10.774;2023-04-24T13:31:52;13.30;99.90
39503;DHT22;26970;49.900;10.774;2023-04-24T13:34:20;13.40;99.90
39503;DHT22;26970;49.900;10.774;2023-04-24T13:36:46;13.30;99.90
39503;DHT22;26970;49.900;10.774;2023-04-24T13:39:12;13.30;99.90
39503;DHT22;26970;49.900;10.774;2023-04-24T13:41:37;13.30;99.90
39503;DHT22;26970;49.900;10.774;2023-04-24T13:44:04;13.30;99.90
39503;DHT22;26970;49.900;10.774;2023-04-24T13:46:30;13.10;99.90
39503;DHT22;26970;49.900;10.774;2023-04-24T13:48:56;13.00;99.90
39503;DHT22;26970;49.900;10.774;2023-04-24T13:51:22;12.70;99.90
39503;DHT22;26970;49.900;10.774;2023-04-24T13:53:48;12.40;99.90
39503;DHT22;26970;49.900;10.774;2023-04-24T13:56:13;12.20;99.90
39503;DHT22;26970;49.900;10.774;2023-04-24T13:58:39;11.90;99.90
39503;DHT22;26970;49.900;10.774;2023-04-24T14:01:05;11.60;99.90
39503;DHT22;26970;49.900;10.774;2023-04-24T14:03:32;11.10;99.90
39503;DHT22;26970;49.900;10.774;2023-04-24T14:05:58;10.90;99.90
39503;DHT22;26970;49.900;10.774;2023-04-24T14:08:24;10.60;99.90
39503;DHT22;26970;49.900;10.774;2023-04-24T14:10:50;10.40;99.90
39503;DHT22;26970;49.900;10.774;2023-04-24T14:13:16;10.30;99.90
39503;DHT22;26970;49.900;10.774;2023-04-24T14:15:41;10.20;99.90
39503;DHT22;26970;49.900;10.774;2023-04-24T14:18:07;10.20;99.90
39503;DHT22;26970;49.900;10.774;2023-04-24T14:20:33;10.10;99.90
39503;DHT22;26970;49.900;10.774;2023-04-24T14:22:58;10.10;99.90
39503;DHT22;26970;49.900;10.774;2023-04-24T14:25:24;10.10;99.90
39503;DHT22;26970;49.900;10.774;2023-04-24T14:27:50;10.10;99.90
39503;DHT22;26970;49.900;10.774;2023-04-24T14:30:16;10.20;99.90
39503;DHT22;26970;49.900;10.774;2023-04-24T14:32:42;10.20;99.90
39503;DHT22;26970;49.900;10.774;2023-04-24T14:35:08;10.30;99.90
39503;DHT22;26970;49.900;10.774;2023-04-24T14:37:34;10.40;99.90
39503;DHT22;26970;49.900;10.774;2023-04-24T14:39:59;10.60;99.90
39503;DHT22;26970;49.900;10.774;2023-04-24T14:42:25;10.90;99.90
39503;DHT22;26970;49.900;10.774;2023-04-24T14:44:51;11.20;99.90
39503;DHT22;26970;49.900;10.774;2023-04-24T14:47:16;11.30;99.90
39503;DHT22;26970;49.900;10.774;2023-04-24T14:49:47;11.50;99.90
39503;DHT22;26970;49.900;10.774;2023-04-24T14:52:13;11.50;99.90
39503;DHT22;26970;49.900;10.774;2023-04-24T14:54:39;11.50;99.90
39503;DHT22;26970;49.900;10.774;2023-04-24T14:57:04;11.50;99.90
39503;DHT22;26970;49.900;10.774;2023-04-24T14:59:31;11.50;99.90
39503;DHT22;26970;49.900;10.774;2023-04-24T15:01:57;11.50;99.90
39503;DHT22;26970;49.900;10.774;2023-04-24T15:04:24;11.40;99.90
39503;DHT22;26970;49.900;10.774;2023-04-24T15:06:51;11.40;99.90
39503;DHT22;26970;49.900;10.774;2023-04-24T15:09:18;11.20;99.90
39503;DHT22;26970;49.900;10.774;2023-04-24T15:11:43;11.10;99.90
39503;DHT22;26970;49.900;10.774;2023-04-24T15:14:09;10.90;99.90
39503;DHT22;26970;49.900;10.774;2023-04-24T15:16:35;10.70;99.90
39503;DHT22;26970;49.900;10.774;2023-04-24T15:19:00;10.30;99.90
39503;DHT22;26970;49.900;10.774;2023-04-24T15:21:26;10.10;99.90
39503;DHT22;26970;49.900;10.774;2023-04-24T15:23:52;9.90;99.90
39503;DHT22;26970;49.900;10.774;2023-04-24T15:26:18;10.00;99.90
39503;DHT22;26970;49.900;10.774;2023-04-24T15:28:44;9.90;99.90